Latest Weather Observations for Campania

IDT60801

Issued at 10:41 pm EDT Thursday 17 January 2019 (issued every 10 minutes, with the page automatically refreshed every 10 minutes)

About weather observations | Map of weather stations | Latest weather observations for TAS | Other Formats
Station Details ID: 094212 Name: CAMPANIA (KINCORA) Lat: -42.69 Lon: 147.43 Height: 45.0 m
Data from the previous 72 hours. | See also: Recent months at Campania
Date/Time
EDT
Temp
°C
App
Temp
°C
Dew
Point
°C
Rel
Hum
%
Delta-T
°C
Wind Press
QNH
hPa
Press
MSL
hPa
Rain since
9am
mm
Dir  Spd
km/h
Gust
km/h
Spd
kts
Gust
kts
17/10:30pm 17.8 18.3 15.6 87 1.3 SSE 7 11 4 6 - - 0.4
17/10:00pm 18.1 17.8 15.5 85 1.5 SE 11 15 6 8 - - 0.4
17/09:30pm 18.5 18.3 15.6 83 1.7 SE 11 15 6 8 - - 0.4
17/09:00pm 19.1 18.4 15.4 79 2.2 ESE 13 17 7 9 - - 0.4
17/08:30pm 20.3 19.4 14.9 71 3.2 SSE 13 20 7 11 - - 0.4
17/08:00pm 21.2 19.7 15.3 69 3.5 SE 17 22 9 12 - - 0.4
17/07:30pm 22.3 21.3 15.6 66 4.0 ESE 15 22 8 12 - - 0.4
17/07:00pm 23.4 21.6 16.0 63 4.5 SE 20 26 11 14 - - 0.4
17/06:30pm 23.7 22.4 15.7 61 4.8 SSE 17 24 9 13 - - 0.4
17/06:00pm 24.6 22.3 15.8 58 5.3 S 22 30 12 16 - - 0.4
17/05:30pm 24.9 22.4 16.1 58 5.4 S 24 33 13 18 - - 0.4
17/05:00pm 26.4 24.3 16.3 53 6.2 S 22 28 12 15 - - 0.4
17/04:30pm 25.5 23.2 15.8 55 5.9 S 22 30 12 16 - - 0.4
17/04:00pm 26.5 24.7 16.1 52 6.4 S 20 26 11 14 - - 0.4
17/03:30pm 25.7 22.5 16.3 56 5.8 S 28 33 15 18 - - 0.4
17/03:00pm 27.8 25.8 16.4 50 7.1 S 22 35 12 19 - - 0.4
17/02:30pm 28.7 29.5 16.3 47 7.7 SW 7 17 4 9 - - 0.4
17/02:00pm 27.8 28.4 16.7 50 6.9 E 9 19 5 10 - - 0.4
17/01:30pm 25.9 26.3 16.2 55 6.0 ESE 9 13 5 7 - - 0.2
17/01:00pm 24.1 24.0 15.9 60 5.0 NNE 11 20 6 11 - - 0.2
17/12:30pm 22.2 21.5 15.5 66 4.0 N 13 19 7 10 - - 0.2
17/12:00pm 20.5 21.0 15.1 71 3.2 ENE 6 9 3 5 - - 0.2
17/11:30am 19.6 19.8 14.2 71 3.1 ENE 6 7 3 4 - - 0.2
17/11:00am 18.4 18.9 13.9 75 2.6 ESE 4 7 2 4 - - 0.2
17/10:30am 18.2 19.5 14.1 77 2.4 CALM 0 0 0 0 - - 0.2
17/10:00am 17.8 18.7 14.1 79 2.1 S 2 6 1 3 - - 0.2
17/09:30am 17.4 17.7 14.5 83 1.7 S 6 7 3 4 - - 0.2
17/09:00am 17.0 16.8 13.7 81 1.9 SSW 7 11 4 6 - - 0.0
17/08:30am 16.8 16.4 12.9 78 2.2 SSE 7 9 4 5 - - 0.0
17/08:00am 16.8 17.7 12.9 78 2.2 CALM 0 0 0 0 - - 0.0
17/07:30am 16.2 16.4 12.9 81 1.8 E 4 9 2 5 - - 0.0
17/07:00am 16.1 16.6 12.8 81 1.8 ENE 2 7 1 4 - - 0.0
17/06:30am 16.1 16.6 12.8 81 1.8 NNE 2 6 1 3 - - 0.0
17/06:00am 15.9 14.2 12.6 81 1.8 N 13 17 7 9 - - 0.0
17/05:30am 15.4 15.0 12.9 85 1.4 NNE 7 9 4 5 - - 0.0
17/05:00am 15.4 15.2 13.1 86 1.3 NNE 6 11 3 6 - - 0.0
17/04:30am 15.2 16.1 12.9 86 1.3 CALM 0 0 0 0 - - 0.0
17/04:00am 15.1 16.0 12.8 86 1.3 CALM 0 0 0 0 - - 0.0
17/03:30am 14.6 15.3 12.3 86 1.3 CALM 0 0 0 0 - - 0.0
17/03:00am 14.2 14.7 11.7 85 1.3 CALM 0 0 0 0 - - 0.0
17/02:30am 14.2 13.3 11.5 84 1.4 S 7 9 4 5 - - 0.0
17/02:00am 14.9 13.8 12.0 83 1.6 N 9 11 5 6 - - 0.0
17/01:30am 15.1 14.6 11.9 81 1.7 N 6 7 3 4 - - 0.0
17/01:00am 15.6 16.3 12.2 80 1.9 CALM 0 0 0 0 - - 0.0
17/12:30am 15.3 14.6 11.9 80 1.8 WSW 7 9 4 5 - - 0.0
17/12:00am 15.5 14.8 11.9 79 2.0 SW 7 9 4 5 - - 0.0
 
Date/Time
EDT
Temp
°C
App
Temp
°C
Dew
Point
°C
Rel
Hum
%
Delta-T
°C
Wind Press
QNH
hPa
Press
MSL
hPa
Rain since
9am
mm
Dir  Spd
km/h
Gust
km/h
Spd
kts
Gust
kts
16/11:30pm 16.5 16.1 12.3 76 2.3 NE 6 9 3 5 - - 0.0
16/11:00pm 16.8 15.9 12.5 76 2.4 NE 9 11 5 6 - - 0.0
16/10:30pm 17.2 15.9 12.5 74 2.6 NE 11 15 6 8 - - 0.0
16/10:00pm 17.0 16.0 12.3 74 2.6 NE 9 13 5 7 - - 0.0
16/09:30pm 17.2 16.6 12.3 73 2.7 NNE 7 11 4 6 - - 0.0
16/09:00pm 17.4 15.7 12.3 72 2.8 NE 13 19 7 10 - - 0.0
16/08:30pm 18.0 16.5 12.0 68 3.3 ENE 11 17 6 9 - - 0.0
16/08:00pm 18.4 16.2 12.2 67 3.4 ENE 15 22 8 12 - - 0.0
16/07:30pm 18.9 17.1 12.2 65 3.7 ENE 13 19 7 10 - - 0.0
16/07:00pm 19.6 17.4 12.1 62 4.2 ENE 15 20 8 11 - - 0.0
16/06:30pm 20.2 17.6 11.9 59 4.6 ESE 17 35 9 19 - - 0.0
16/06:00pm 20.4 16.7 11.6 57 4.9 SSE 22 32 12 17 - - 0.0
16/05:30pm 20.8 17.1 11.4 55 5.2 SSE 22 32 12 17 - - 0.0
16/05:00pm 20.9 16.4 11.3 54 5.3 SSE 26 35 14 19 - - 0.0
16/04:30pm 22.3 18.3 11.7 51 5.9 SSE 24 32 13 17 - - 0.0
16/04:00pm 21.5 17.3 11.2 52 5.7 SSE 24 32 13 17 - - 0.0
16/03:30pm 21.9 18.2 11.6 52 5.8 SSE 22 30 12 16 - - 0.0
16/03:00pm 22.5 18.8 11.6 50 6.1 SSE 22 32 12 17 - - 0.0
16/02:30pm 22.2 19.1 11.6 51 5.9 SE 19 30 10 16 - - 0.0
16/02:00pm 22.3 19.5 11.4 50 6.1 SSE 17 28 9 15 - - 0.0
16/01:30pm 22.6 20.0 12.0 51 6.0 SSE 17 24 9 13 - - 0.0
16/01:00pm 20.8 18.4 11.4 55 5.2 SE 15 24 8 13 - - 0.0
16/12:30pm 20.7 18.0 11.6 56 5.1 SE 17 24 9 13 - - 0.0
16/12:00pm 20.2 16.8 11.1 56 5.0 ESE 20 32 11 17 - - 0.0
16/11:30am 21.8 19.0 11.5 52 5.7 SE 17 22 9 12 - - 0.0
16/11:00am 21.1 17.6 10.9 52 5.6 SE 20 28 11 15 - - 0.0
16/10:30am 20.2 16.4 11.1 56 5.0 S 22 30 12 16 - - 0.0
16/10:00am 19.8 17.5 11.6 59 4.5 SSE 15 22 8 12 - - 0.0
16/09:30am 18.4 15.9 11.2 63 3.9 SSE 15 20 8 11 - - 0.0
16/09:00am 17.8 15.7 11.1 65 3.6 SSE 13 17 7 9 - - 0.0
16/08:30am 17.6 15.6 11.4 67 3.4 SSE 13 17 7 9 - - 0.0
16/08:00am 17.5 15.9 12.8 74 2.6 SSE 13 17 7 9 - - 0.0
16/07:30am 16.5 15.6 12.7 78 2.1 SSE 9 15 5 8 - - 0.0
16/07:00am 15.1 16.1 13.3 89 1.0 CALM 0 0 0 0 - - 0.0
16/06:30am 14.0 14.4 12.6 91 0.8 NNE 2 7 1 4 - - 0.0
16/06:00am 13.5 13.7 11.9 90 0.9 WNW 2 9 1 5 - - 0.0
16/05:30am 13.2 12.5 11.9 92 0.7 NNE 7 9 4 5 - - 0.0
16/05:00am 12.6 11.7 11.5 93 0.6 N 7 9 4 5 - - 0.0
16/04:30am 11.6 11.4 10.3 92 0.7 N 2 6 1 3 - - 0.0
16/04:00am 12.1 11.2 10.8 92 0.7 N 6 7 3 4 - - 0.0
16/03:30am 12.1 12.0 10.7 91 0.7 NW 2 7 1 4 - - 0.0
16/03:00am 13.1 12.5 11.7 91 0.7 WSW 6 7 3 4 - - 0.0
16/02:30am 13.4 13.1 11.3 87 1.1 N 4 9 2 5 - - 0.0
16/02:00am 14.2 13.5 12.1 87 1.1 N 7 11 4 6 - - 0.0
16/01:30am 14.6 14.0 12.3 86 1.3 N 7 11 4 6 - - 0.0
16/01:00am 15.1 14.5 12.4 84 1.5 N 7 9 4 5 - - 0.0
16/12:30am 15.8 15.1 13.1 84 1.5 N 9 11 5 6 - - 0.0
16/12:00am 15.6 15.8 12.9 84 1.5 NW 4 7 2 4 - - 0.0
 
Date/Time
EDT
Temp
°C
App
Temp
°C
Dew
Point
°C
Rel
Hum
%
Delta-T
°C
Wind Press
QNH
hPa
Press
MSL
hPa
Rain since
9am
mm
Dir  Spd
km/h
Gust
km/h
Spd
kts
Gust
kts
15/11:30pm 16.5 17.1 13.2 81 1.8 NNW 2 7 1 4 - - 0.0
15/11:00pm 16.4 16.2 13.1 81 1.8 NNW 6 7 3 4 - - 0.0
15/10:30pm 17.3 17.3 13.6 79 2.1 W 6 11 3 6 - - 0.0
15/10:00pm 17.9 19.1 13.8 77 2.3 CALM 0 0 0 0 - - 0.0
15/09:30pm 18.8 18.2 13.6 72 3.0 SW 9 13 5 7 - - 0.0
15/09:00pm 19.6 18.9 13.1 66 3.7 ESE 9 13 5 7 - - 0.0
15/08:30pm 20.9 19.8 11.8 56 5.1 SSE 9 13 5 7 - - 0.0
15/08:00pm 21.5 19.6 11.8 54 5.4 ESE 13 20 7 11 - - 0.0
15/07:30pm 22.0 17.5 11.4 51 5.9 SSE 26 35 14 19 - - 0.0
15/07:00pm 24.3 20.7 13.2 50 6.5 S 24 32 13 17 - - 0.0
15/06:30pm 24.7 21.3 13.6 50 6.5 S 24 33 13 18 - - 0.0
15/06:00pm 26.5 23.7 14.3 47 7.3 SSE 22 30 12 16 - - 0.0
15/05:30pm 26.7 24.1 14.8 48 7.2 S 22 30 12 16 - - 0.0
15/05:00pm 27.6 25.4 14.9 45 7.7 S 20 28 11 15 - - 0.0
15/04:30pm 27.9 24.8 15.5 46 7.6 S 26 33 14 18 - - 0.0
15/04:00pm 28.1 25.4 15.7 46 7.6 S 24 30 13 16 - - 0.0
15/03:30pm 28.8 26.2 15.0 43 8.4 SSE 22 32 12 17 - - 0.0
15/03:00pm 28.6 25.3 14.1 41 8.7 S 24 32 13 17 - - 0.0
15/02:30pm 28.2 24.7 13.3 40 8.8 SSE 24 30 13 16 - - 0.0
15/02:00pm 27.9 25.1 12.7 39 8.9 S 19 26 10 14 - - 0.0
15/01:30pm 29.3 27.8 14.3 40 9.1 E 15 22 8 12 - - 0.0
15/01:00pm 30.1 29.5 13.4 36 10.0 NNE 9 17 5 9 - - 0.0
15/12:30pm 29.3 28.2 13.1 37 9.6 ESE 11 15 6 8 - - 0.0
15/12:00pm 29.7 29.1 13.5 37 9.7 E 9 13 5 7 - - 0.0
15/11:30am 28.6 28.3 13.3 39 9.1 NE 7 17 4 9 - - 0.0
15/11:00am 27.6 26.5 13.2 41 8.5 ENE 11 15 6 8 - - 0.0
15/10:30am 27.0 26.3 14.4 46 7.6 NNE 11 13 6 7 - - 0.0
15/10:00am 26.0 26.1 15.4 52 6.4 NNE 9 15 5 8 - - 0.0
15/09:30am 24.4 24.7 15.9 59 5.2 N 9 13 5 7 - - 0.0
15/09:00am 23.2 23.6 16.3 65 4.2 N 9 17 5 9 - - 0.0
15/08:30am 21.4 21.7 15.9 71 3.3 N 9 13 5 7 - - 0.0
15/08:00am 19.9 20.3 16.2 79 2.2 N 9 13 5 7 - - 0.0
15/07:30am 18.9 18.4 15.8 82 1.8 NNE 13 17 7 9 - - 0.0
15/07:00am 17.4 17.2 15.6 89 1.1 N 11 13 6 7 - - 0.0
15/06:30am 16.2 15.7 14.9 92 0.7 N 11 15 6 8 - - 0.0
15/06:00am 15.4 15.8 13.8 90 0.9 N 4 7 2 4 - - 0.0
15/05:30am 15.7 15.8 14.4 92 0.7 NNW 7 9 4 5 - - 0.0
15/05:00am 15.9 16.2 14.6 92 0.7 WNW 6 9 3 5 - - 0.0
15/04:30am 15.6 15.3 14.3 92 0.7 S 9 13 5 7 - - 0.0
15/04:00am 15.8 15.9 13.8 88 1.1 E 6 7 3 4 - - 0.0
15/03:30am 16.7 17.1 14.7 88 1.2 NNW 6 9 3 5 - - 0.0
15/03:00am 17.0 18.4 14.5 85 1.4 CALM 0 0 0 0 - - 0.0
15/02:30am 17.2 17.3 14.5 84 1.6 SSW 7 9 4 5 - - 0.0
15/02:00am 17.9 18.5 14.2 79 2.1 ESE 4 9 2 5 - - 0.0
15/01:30am 18.7 18.3 15.2 80 2.1 SW 11 13 6 7 - - 0.0
15/01:00am 17.7 19.1 14.4 81 1.9 CALM 0 0 0 0 - - 0.0
15/12:30am 18.6 20.2 14.9 79 2.2 CALM 0 0 0 0 - - 0.0
15/12:00am 19.3 19.8 15.0 76 2.5 SSE 6 7 3 4 - - 0.0
 
Date/Time
EDT
Temp
°C
App
Temp
°C
Dew
Point
°C
Rel
Hum
%
Delta-T
°C
Wind Press
QNH
hPa
Press
MSL
hPa
Rain since
9am
mm
Dir  Spd
km/h
Gust
km/h
Spd
kts
Gust
kts
14/11:30pm 19.9 20.2 15.1 74 2.8 NNE 7 9 4 5 - - 0.0
14/11:00pm 20.2 19.8 15.2 73 3.0 N 11 17 6 9 - - 0.0

Other Formats:

Comma delimited format used in spreadsheet applications
http://www.bom.gov.au/fwo/IDT60801/IDT60801.95972.axf

JavaScript Object Notation format (JSON) in row-major order
http://www.bom.gov.au/fwo/IDT60801/IDT60801.95972.json